createdAt,value
2023-06-08T00:02:12.201Z,0.82
2023-06-08T00:04:43.326Z,1.10
2023-06-08T00:07:12.205Z,0.93
2023-06-08T00:09:40.658Z,1.00
2023-06-08T00:12:09.632Z,0.80
2023-06-08T00:14:38.034Z,1.05
2023-06-08T00:17:07.226Z,1.10
2023-06-08T00:19:37.938Z,0.77
2023-06-08T00:22:10.228Z,1.02
2023-06-08T00:24:38.694Z,0.85
2023-06-08T00:27:08.304Z,1.20
2023-06-08T00:29:36.472Z,1.13
2023-06-08T00:32:05.407Z,1.00
2023-06-08T00:34:33.636Z,0.90
2023-06-08T00:37:01.952Z,1.50
2023-06-08T00:39:34.186Z,1.33
2023-06-08T00:42:03.076Z,1.45
2023-06-08T00:44:31.317Z,1.33
2023-06-08T00:47:00.342Z,1.00
2023-06-08T00:49:31.704Z,1.17
2023-06-08T00:52:01.547Z,1.00
2023-06-08T00:54:32.493Z,0.80
2023-06-08T00:57:03.463Z,1.10
2023-06-08T00:59:32.650Z,1.25
2023-06-08T01:02:01.413Z,0.90
2023-06-08T01:04:30.285Z,1.05
2023-06-08T01:07:06.288Z,1.10
2023-06-08T01:09:44.611Z,0.90
2023-06-08T01:12:20.736Z,1.20
2023-06-08T01:15:01.129Z,1.10
2023-06-08T01:17:42.427Z,1.05
2023-06-08T01:20:23.362Z,1.10
2023-06-08T01:23:08.895Z,1.02
2023-06-08T01:25:47.732Z,1.15
2023-06-08T01:28:16.744Z,1.13
2023-06-08T01:30:46.766Z,1.23
2023-06-08T01:33:18.963Z,1.08
2023-06-08T01:36:01.564Z,1.00
2023-06-08T01:38:37.186Z,1.30
2023-06-08T01:41:12.451Z,1.10
2023-06-08T01:43:43.959Z,0.80
2023-06-08T01:46:13.860Z,1.42
2023-06-08T01:48:43.216Z,1.23
2023-06-08T01:51:14.824Z,1.30
2023-06-08T01:53:43.323Z,1.10
2023-06-08T01:56:12.877Z,0.95
2023-06-08T01:58:41.016Z,1.02
2023-06-08T02:01:09.164Z,1.48
2023-06-08T02:03:37.498Z,1.20
2023-06-08T02:06:05.820Z,1.10
2023-06-08T02:08:33.925Z,1.33
2023-06-08T02:11:02.420Z,1.50
2023-06-08T02:13:31.966Z,1.48
2023-06-08T02:16:00.219Z,1.35
2023-06-08T02:18:28.462Z,1.33
2023-06-08T02:20:56.891Z,1.20
2023-06-08T02:23:25.036Z,1.50
2023-06-08T02:25:53.314Z,1.10
2023-06-08T02:28:21.962Z,1.67
2023-06-08T02:30:51.625Z,1.20
2023-06-08T02:33:21.722Z,1.13
2023-06-08T02:35:50.117Z,1.45
2023-06-08T02:38:18.689Z,1.42
2023-06-08T02:40:46.940Z,1.23
2023-06-08T02:43:16.117Z,1.20
2023-06-08T02:45:44.276Z,1.52
2023-06-08T02:48:13.806Z,1.55
2023-06-08T02:50:41.891Z,1.40
2023-06-08T02:53:10.430Z,1.55
2023-06-08T02:55:38.581Z,1.60
2023-06-08T02:58:06.903Z,1.52
2023-06-08T03:00:35.498Z,1.67
2023-06-08T03:03:03.644Z,1.45
2023-06-08T03:05:35.554Z,1.52
2023-06-08T03:08:03.957Z,1.60
2023-06-08T03:10:32.158Z,1.50
2023-06-08T03:13:02.433Z,1.50
2023-06-08T03:15:33.015Z,1.63
2023-06-08T03:18:02.441Z,1.42
2023-06-08T03:20:30.688Z,1.63
2023-06-08T03:23:00.290Z,1.83
2023-06-08T03:25:29.780Z,1.63
2023-06-08T03:27:57.968Z,1.73
2023-06-08T03:30:27.060Z,1.52
2023-06-08T03:32:55.281Z,1.90
2023-06-08T03:35:23.471Z,1.65
2023-06-08T03:37:51.743Z,1.50
2023-06-08T03:40:21.285Z,1.50
2023-06-08T03:42:51.982Z,1.42
2023-06-08T03:45:20.433Z,1.42
2023-06-08T03:47:48.698Z,1.40
2023-06-08T03:50:16.894Z,1.40
2023-06-08T03:52:45.312Z,1.40
2023-06-08T03:55:14.269Z,1.30
2023-06-08T03:57:43.789Z,1.92
2023-06-08T04:00:12.987Z,1.58
2023-06-08T04:02:41.260Z,1.88
2023-06-08T04:05:10.206Z,2.33
2023-06-08T04:07:38.437Z,1.65
2023-06-08T04:10:07.556Z,1.83
2023-06-08T04:12:35.754Z,2.05
2023-06-08T04:15:08.486Z,1.83
2023-06-08T04:17:38.171Z,1.63
2023-06-08T04:20:07.236Z,1.85
2023-06-08T04:22:35.526Z,1.67
2023-06-08T04:25:03.916Z,1.88
2023-06-08T04:27:32.528Z,1.65
2023-06-08T04:30:00.783Z,2.20
2023-06-08T04:32:30.486Z,1.83
2023-06-08T04:34:58.694Z,1.88
2023-06-08T04:37:27.709Z,2.42
2023-06-08T04:39:58.182Z,2.40
2023-06-08T04:42:26.621Z,2.00
2023-06-08T04:44:54.782Z,1.80
2023-06-08T04:47:22.949Z,1.65
2023-06-08T04:49:53.104Z,2.60
2023-06-08T04:52:21.973Z,2.00
2023-06-08T04:54:53.947Z,2.10
2023-06-08T04:57:22.930Z,1.90
2023-06-08T04:59:51.228Z,1.98
2023-06-08T05:02:19.450Z,1.98
2023-06-08T05:04:47.652Z,1.90
2023-06-08T05:07:17.408Z,2.40
2023-06-08T05:09:45.572Z,2.40
2023-06-08T05:12:13.707Z,2.67
2023-06-08T05:14:42.723Z,2.72
2023-06-08T05:17:10.926Z,2.72
2023-06-08T05:19:39.142Z,2.40
2023-06-08T05:22:07.317Z,2.10
2023-06-08T05:24:36.869Z,2.00
2023-06-08T05:27:05.374Z,2.47
2023-06-08T05:29:33.571Z,2.70
2023-06-08T05:32:02.241Z,2.35
2023-06-08T05:34:30.332Z,2.42
2023-06-08T05:36:58.475Z,1.92
2023-06-08T05:39:26.833Z,2.40
2023-06-08T05:41:56.515Z,1.70
2023-06-08T05:44:24.684Z,2.38
2023-06-08T05:46:52.884Z,2.25
2023-06-08T05:49:21.066Z,2.50
2023-06-08T05:51:49.280Z,2.65
2023-06-08T05:54:17.448Z,2.75
2023-06-08T05:56:45.610Z,2.40
2023-06-08T05:59:15.182Z,2.17
2023-06-08T06:01:43.801Z,2.70
2023-06-08T06:04:26.377Z,3.00
2023-06-08T06:07:00.047Z,2.30
2023-06-08T06:09:28.214Z,2.88
2023-06-08T06:11:56.451Z,2.70
2023-06-08T06:14:26.011Z,2.08
2023-06-08T06:17:06.455Z,2.22
2023-06-08T06:19:38.325Z,2.45
2023-06-08T06:22:08.039Z,1.85
2023-06-08T06:24:36.236Z,2.08
2023-06-08T06:27:05.006Z,2.08
2023-06-08T06:29:34.648Z,1.92
2023-06-08T06:32:03.022Z,2.28
2023-06-08T06:34:31.931Z,2.00
2023-06-08T06:37:00.102Z,1.83
2023-06-08T06:39:28.255Z,1.98
2023-06-08T06:41:56.451Z,2.10
2023-06-08T06:44:24.673Z,2.33
2023-06-08T06:46:54.312Z,1.80
2023-06-08T06:49:22.485Z,2.03
2023-06-08T06:51:50.710Z,1.90
2023-06-08T06:54:19.153Z,2.80
2023-06-08T06:56:47.112Z,1.85
2023-06-08T06:59:15.502Z,2.33
2023-06-08T07:01:43.767Z,2.15
2023-06-08T07:04:16.337Z,2.08
2023-06-08T07:06:44.728Z,2.08
2023-06-08T07:09:12.930Z,2.10
2023-06-08T07:11:41.176Z,2.22
2023-06-08T07:14:09.494Z,2.10
2023-06-08T07:16:37.816Z,2.00
2023-06-08T07:19:06.163Z,1.92
2023-06-08T07:21:44.647Z,2.20
2023-06-08T07:24:49.525Z,1.90
2023-06-08T07:27:16.304Z,2.20
2023-06-08T07:29:44.516Z,2.20
2023-06-08T07:32:13.722Z,1.70
2023-06-08T07:34:41.948Z,1.88
2023-06-08T07:37:11.636Z,1.83
2023-06-08T07:39:39.810Z,1.73
2023-06-08T07:42:08.539Z,2.30
2023-06-08T07:44:36.746Z,2.20
2023-06-08T07:47:05.326Z,2.03
2023-06-08T07:49:33.626Z,2.20
2023-06-08T07:52:01.889Z,1.80
2023-06-08T07:54:31.445Z,2.10
2023-06-08T07:56:59.796Z,1.73
2023-06-08T07:59:28.250Z,2.05
2023-06-08T08:01:56.409Z,1.73
2023-06-08T08:04:24.580Z,1.92
2023-06-08T08:06:52.799Z,2.25
2023-06-08T08:09:21.141Z,2.30
2023-06-08T08:11:50.853Z,2.30
2023-06-08T08:14:19.136Z,2.03
2023-06-08T08:16:47.433Z,2.20
2023-06-08T08:19:17.281Z,2.30
2023-06-08T08:21:45.703Z,2.20
2023-06-08T08:24:13.964Z,2.20
2023-06-08T08:26:43.020Z,2.50
2023-06-08T08:29:12.682Z,1.90
2023-06-08T08:31:40.997Z,1.98
2023-06-08T08:34:11.706Z,2.28
2023-06-08T08:36:40.156Z,2.15
2023-06-08T08:39:09.186Z,2.00
2023-06-08T08:41:43.065Z,2.30
2023-06-08T08:44:17.432Z,2.22
2023-06-08T08:46:46.085Z,2.40
2023-06-08T08:49:16.535Z,2.25
2023-06-08T08:51:50.066Z,2.50
2023-06-08T08:54:18.888Z,2.50
2023-06-08T08:56:47.200Z,2.58
2023-06-08T08:59:19.428Z,1.98
2023-06-08T09:01:48.393Z,2.40
2023-06-08T09:04:16.743Z,2.60
2023-06-08T09:06:49.895Z,2.33
2023-06-08T09:09:18.337Z,2.40
2023-06-08T09:12:00.588Z,2.22
2023-06-08T09:14:30.634Z,2.17
2023-06-08T09:17:00.708Z,2.58
2023-06-08T09:19:29.710Z,2.90
2023-06-08T09:21:58.351Z,2.70
2023-06-08T09:24:26.832Z,2.38
2023-06-08T09:26:57.439Z,2.35
2023-06-08T09:29:37.979Z,2.63
2023-06-08T09:32:07.725Z,1.80
2023-06-08T09:34:50.473Z,2.25
2023-06-08T09:37:20.421Z,2.40
2023-06-08T09:39:48.645Z,1.95
2023-06-08T09:42:16.851Z,1.77
2023-06-08T09:44:46.579Z,1.58
2023-06-08T09:47:26.887Z,1.70
2023-06-08T09:49:57.490Z,1.38
2023-06-08T09:52:26.714Z,1.85
2023-06-08T09:54:55.131Z,1.90
2023-06-08T09:57:23.470Z,1.60
2023-06-08T09:59:56.677Z,2.03
2023-06-08T10:02:31.468Z,2.15
2023-06-08T10:05:08.124Z,1.73
2023-06-08T10:07:37.882Z,1.55
2023-06-08T10:10:12.536Z,1.42
2023-06-08T10:12:41.873Z,1.63
2023-06-08T10:15:13.363Z,1.80
2023-06-08T10:17:43.465Z,1.58
2023-06-08T10:20:17.615Z,1.52
2023-06-08T10:22:47.663Z,1.80
2023-06-08T10:25:17.922Z,2.13
2023-06-08T10:27:50.468Z,1.85
2023-06-08T10:30:31.757Z,1.80
2023-06-08T10:33:10.549Z,1.90
2023-06-08T10:35:41.667Z,2.03
2023-06-08T10:38:11.826Z,1.65
2023-06-08T10:40:48.357Z,1.90
2023-06-08T10:43:42.009Z,1.95
2023-06-08T10:46:06.247Z,1.80
2023-06-08T10:48:39.282Z,2.05
2023-06-08T10:51:11.720Z,1.90
2023-06-08T10:53:43.504Z,1.75
2023-06-08T10:56:11.733Z,1.60
2023-06-08T10:58:53.218Z,2.15
2023-06-08T11:01:26.191Z,1.80
2023-06-08T11:03:59.736Z,1.90
2023-06-08T11:06:31.274Z,1.80
2023-06-08T11:09:04.158Z,1.70
2023-06-08T11:11:33.384Z,1.85
2023-06-08T11:14:02.975Z,1.50
2023-06-08T11:16:32.589Z,1.58
2023-06-08T11:19:00.982Z,1.45
2023-06-08T11:21:29.238Z,1.60
2023-06-08T11:23:57.482Z,1.50
2023-06-08T11:26:25.784Z,1.67
2023-06-08T11:28:53.941Z,1.40
2023-06-08T11:31:23.522Z,1.70
2023-06-08T11:33:54.445Z,1.30
2023-06-08T11:36:22.709Z,1.67
2023-06-08T11:38:51.375Z,1.70
2023-06-08T11:41:21.976Z,1.67
2023-06-08T11:43:50.640Z,1.70
2023-06-08T11:46:19.420Z,1.67
2023-06-08T11:48:48.930Z,1.67
2023-06-08T11:51:19.883Z,1.83
2023-06-08T11:53:48.190Z,1.65
2023-06-08T11:56:16.447Z,1.80
2023-06-08T12:01:33.915Z,1.95
2023-06-08T12:04:02.286Z,1.88
2023-06-08T12:06:32.459Z,2.20
2023-06-08T12:09:00.971Z,1.58
2023-06-08T12:11:31.136Z,1.60
2023-06-08T12:13:59.652Z,1.90
2023-06-08T12:16:27.956Z,2.25
2023-06-08T12:18:58.854Z,2.03
2023-06-08T12:21:27.148Z,2.22
2023-06-08T12:23:56.722Z,2.00
2023-06-08T12:26:27.467Z,2.10
2023-06-08T12:28:55.695Z,1.90
2023-06-08T12:31:23.957Z,2.00
2023-06-08T12:33:52.194Z,1.60
2023-06-08T12:36:20.412Z,1.88
2023-06-08T12:38:48.580Z,1.90
2023-06-08T12:41:19.647Z,1.80
2023-06-08T12:43:49.051Z,2.35
2023-06-08T12:46:20.321Z,2.50
2023-06-08T12:48:49.527Z,2.00
2023-06-08T12:51:18.067Z,2.15
2023-06-08T12:53:47.770Z,2.17
2023-06-08T12:56:17.529Z,2.08
2023-06-08T12:58:45.684Z,2.40
2023-06-08T13:01:14.172Z,2.40
2023-06-08T13:03:44.234Z,2.38
2023-06-08T13:06:12.514Z,2.20
2023-06-08T13:08:40.738Z,2.20
2023-06-08T13:11:09.004Z,2.13
2023-06-08T13:13:38.824Z,2.03
2023-06-08T13:16:08.142Z,1.90
2023-06-08T13:18:36.510Z,1.73
2023-06-08T13:21:04.722Z,1.50
2023-06-08T13:23:33.084Z,1.90
2023-06-08T13:26:02.603Z,1.48
2023-06-08T13:28:30.825Z,1.55
2023-06-08T13:31:00.599Z,1.55
2023-06-08T13:33:28.829Z,1.80
2023-06-08T13:35:56.973Z,1.80
2023-06-08T13:38:25.984Z,1.90
2023-06-08T13:40:54.511Z,1.70
2023-06-08T13:43:22.638Z,1.35
2023-06-08T13:45:52.219Z,1.50
2023-06-08T13:48:22.273Z,1.30
2023-06-08T13:50:50.622Z,1.50
2023-06-08T13:53:18.833Z,1.70
2023-06-08T13:55:47.660Z,1.83
2023-06-08T13:58:16.382Z,1.90
2023-06-08T14:00:44.672Z,1.48
2023-06-08T14:03:13.256Z,1.48
2023-06-08T14:05:42.938Z,1.42
2023-06-08T14:08:11.098Z,1.67
2023-06-08T14:10:39.244Z,1.98
2023-06-08T14:13:07.466Z,2.00
2023-06-08T14:15:35.636Z,1.95
2023-06-08T14:18:03.936Z,1.88
2023-06-08T14:20:35.319Z,1.50
2023-06-08T14:23:05.044Z,1.73
2023-06-08T14:25:33.802Z,1.70
2023-06-08T14:28:01.978Z,1.42
2023-06-08T14:30:30.187Z,1.33
2023-06-08T14:33:00.307Z,1.48
2023-06-08T14:35:28.603Z,1.13
2023-06-08T14:37:56.832Z,1.30
2023-06-08T14:40:26.512Z,1.45
2023-06-08T14:42:54.660Z,1.42
2023-06-08T14:45:22.868Z,1.33
2023-06-08T14:47:51.130Z,1.85
2023-06-08T14:50:19.350Z,1.40
2023-06-08T14:52:47.560Z,1.27
2023-06-08T14:55:15.858Z,1.80
2023-06-08T14:57:46.049Z,0.90
2023-06-08T15:00:15.693Z,1.20
2023-06-08T15:02:43.859Z,1.02
2023-06-08T15:05:12.318Z,1.05
2023-06-08T15:07:40.551Z,1.17
2023-06-08T15:10:10.240Z,1.30
2023-06-08T15:12:38.640Z,1.35
2023-06-08T15:15:09.780Z,1.33
2023-06-08T15:17:38.000Z,1.00
2023-06-08T15:20:08.178Z,1.10
2023-06-08T15:22:36.744Z,1.08
2023-06-08T15:25:05.509Z,1.02
2023-06-08T15:27:33.718Z,0.80
2023-06-08T15:30:02.025Z,0.82
2023-06-08T15:32:34.797Z,0.90
2023-06-08T15:35:06.711Z,0.98
2023-06-08T15:37:36.978Z,1.17
2023-06-08T15:40:06.200Z,1.00
2023-06-08T15:42:34.759Z,0.82
2023-06-08T15:45:02.961Z,0.88
2023-06-08T15:47:32.688Z,0.90
2023-06-08T15:50:01.875Z,0.77
2023-06-08T15:52:30.077Z,1.30
2023-06-08T15:54:58.372Z,1.17
2023-06-08T15:57:27.118Z,0.60
2023-06-08T15:59:56.379Z,0.40
2023-06-08T16:02:25.081Z,0.65
2023-06-08T16:04:55.308Z,0.50
2023-06-08T16:07:23.516Z,0.80
2023-06-08T16:09:51.762Z,0.80
2023-06-08T16:12:19.967Z,1.00
2023-06-08T16:14:48.200Z,1.00
2023-06-08T16:17:16.547Z,1.35
2023-06-08T16:19:44.808Z,1.08
2023-06-08T16:22:14.535Z,0.95
2023-06-08T16:24:42.976Z,0.95
2023-06-08T16:27:11.319Z,1.17
2023-06-08T16:29:39.544Z,1.08
2023-06-08T16:32:08.260Z,0.93
2023-06-08T16:34:36.697Z,0.93
2023-06-08T16:37:05.914Z,1.10
2023-06-08T16:39:36.010Z,1.50
2023-06-08T16:42:04.246Z,1.23
2023-06-08T16:44:32.452Z,1.42
2023-06-08T16:47:00.829Z,1.13
2023-06-08T16:49:29.084Z,1.30
2023-06-08T16:51:57.298Z,1.40
2023-06-08T16:54:26.041Z,1.60
2023-06-08T16:56:55.716Z,1.25
2023-06-08T16:59:23.857Z,1.30
2023-06-08T17:01:52.087Z,1.48
2023-06-08T17:04:20.392Z,1.20
2023-06-08T17:06:48.648Z,1.10
2023-06-08T17:09:16.861Z,1.30
2023-06-08T17:11:47.713Z,1.00
2023-06-08T17:14:17.875Z,0.82
2023-06-08T17:16:47.477Z,1.10
2023-06-08T17:19:15.679Z,1.20
2023-06-08T17:21:43.948Z,1.10
2023-06-08T17:24:12.201Z,1.05
2023-06-08T17:26:40.713Z,1.00
2023-06-08T17:29:09.360Z,0.80
2023-06-08T17:31:40.058Z,1.00
2023-06-08T17:34:11.011Z,1.00
2023-06-08T17:36:39.137Z,1.10
2023-06-08T17:39:07.276Z,1.17
2023-06-08T17:41:35.504Z,1.17
2023-06-08T17:44:04.383Z,0.98
2023-06-08T17:46:32.643Z,1.10
2023-06-08T17:49:02.317Z,0.80
2023-06-08T17:51:30.588Z,1.00
2023-06-08T17:53:58.791Z,1.30
2023-06-08T17:56:27.405Z,1.50
2023-06-08T17:58:55.674Z,1.05
2023-06-08T18:01:24.061Z,1.30
2023-06-08T18:03:52.781Z,1.00
2023-06-08T18:06:25.912Z,1.25
2023-06-08T18:08:54.458Z,0.77
2023-06-08T18:11:24.503Z,1.50
2023-06-08T18:13:53.098Z,1.10
2023-06-08T18:16:21.529Z,1.48
2023-06-08T18:18:51.702Z,1.00
2023-06-08T18:21:21.755Z,1.27
2023-06-08T18:23:54.989Z,1.30
2023-06-08T18:26:24.289Z,1.27
2023-06-08T18:28:53.218Z,1.33
2023-06-08T18:31:24.995Z,1.13
2023-06-08T18:33:53.352Z,1.25
2023-06-08T18:36:24.500Z,1.15
2023-06-08T18:38:52.645Z,1.27
2023-06-08T18:41:21.058Z,1.73
2023-06-08T18:43:50.508Z,1.40
2023-06-08T18:46:19.229Z,1.40
2023-06-08T18:48:47.472Z,1.50
2023-06-08T18:51:15.960Z,1.58
2023-06-08T18:53:45.549Z,1.48
2023-06-08T18:56:13.706Z,1.65
2023-06-08T18:58:41.931Z,1.42
2023-06-08T19:01:10.184Z,1.50
2023-06-08T19:03:38.452Z,1.77
2023-06-08T19:06:07.042Z,1.40
2023-06-08T19:08:35.204Z,1.08
2023-06-08T19:11:04.816Z,1.30
2023-06-08T19:13:41.880Z,1.25
2023-06-08T19:16:11.258Z,1.17
2023-06-08T19:18:39.906Z,1.65
2023-06-08T19:21:08.122Z,1.85
2023-06-08T19:23:36.363Z,1.58
2023-06-08T19:26:06.140Z,1.55
2023-06-08T19:28:35.521Z,1.50
2023-06-08T19:31:03.740Z,1.45
2023-06-08T19:33:34.012Z,1.75
2023-06-08T19:36:02.205Z,1.67
2023-06-08T19:38:30.406Z,2.08
2023-06-08T19:40:58.868Z,1.40
2023-06-08T19:43:28.545Z,1.60
2023-06-08T19:45:56.789Z,1.63
2023-06-08T19:48:25.189Z,1.13
2023-06-08T19:50:53.496Z,1.75
2023-06-08T19:53:21.704Z,1.50
2023-06-08T19:55:52.571Z,1.92
2023-06-08T19:58:21.438Z,1.67
2023-06-08T20:00:51.494Z,1.63
2023-06-08T20:03:19.856Z,1.38
2023-06-08T20:05:48.336Z,1.52
2023-06-08T20:08:17.258Z,1.30
2023-06-08T20:10:45.880Z,1.10
2023-06-08T20:13:14.177Z,1.20
2023-06-08T20:15:42.554Z,1.40
2023-06-08T20:18:12.154Z,1.20
2023-06-08T20:20:40.394Z,1.27
2023-06-08T20:23:08.628Z,1.30
2023-06-08T20:25:36.863Z,1.40
2023-06-08T20:28:05.342Z,1.70
2023-06-08T20:30:33.570Z,1.40
2023-06-08T20:33:01.971Z,1.40
2023-06-08T20:35:32.131Z,1.52
2023-06-08T20:38:00.467Z,1.40
2023-06-08T20:40:28.739Z,1.33
2023-06-08T20:42:57.052Z,1.67
2023-06-08T20:45:25.568Z,1.33
2023-06-08T20:47:53.841Z,1.50
2023-06-08T20:50:22.163Z,2.17
2023-06-08T20:52:55.744Z,1.90
2023-06-08T20:55:24.763Z,1.80
2023-06-08T20:57:52.978Z,1.98
2023-06-08T21:00:21.850Z,1.63
2023-06-08T21:02:51.333Z,1.80
2023-06-08T21:05:21.397Z,1.75
2023-06-08T21:07:51.491Z,2.05
2023-06-08T21:10:19.798Z,1.70
2023-06-08T21:12:48.049Z,1.90
2023-06-08T21:15:16.336Z,2.45
2023-06-08T21:17:44.547Z,2.33
2023-06-08T21:20:14.027Z,2.58
2023-06-08T21:22:43.358Z,3.03
2023-06-08T21:25:13.186Z,2.80
2023-06-08T21:27:41.426Z,2.58
2023-06-08T21:30:10.628Z,1.98
2023-06-08T21:32:38.899Z,2.25
2023-06-08T21:35:08.302Z,1.80
2023-06-08T21:37:36.765Z,2.00
2023-06-08T21:40:05.462Z,2.13
2023-06-08T21:42:35.112Z,2.10
2023-06-08T21:45:03.421Z,1.70
2023-06-08T21:47:31.707Z,1.77
2023-06-08T21:50:00.159Z,1.83
2023-06-08T21:52:28.418Z,2.10
2023-06-08T21:54:56.729Z,2.00
2023-06-08T21:57:24.929Z,2.22
2023-06-08T21:59:54.540Z,2.07
2023-06-08T22:02:22.860Z,1.92
2023-06-08T22:04:51.181Z,1.90
2023-06-08T22:07:19.523Z,1.97
2023-06-08T22:09:47.775Z,1.83
2023-06-08T22:12:16.014Z,1.98
2023-06-08T22:14:44.939Z,1.70
2023-06-08T22:17:14.858Z,1.75
2023-06-08T22:19:54.722Z,2.10
2023-06-08T22:22:31.094Z,1.80
2023-06-08T22:24:59.330Z,2.72
2023-06-08T22:27:27.572Z,1.75
2023-06-08T22:29:55.714Z,1.90
2023-06-08T22:32:26.153Z,1.70
2023-06-08T22:34:55.419Z,2.20
2023-06-08T22:37:23.658Z,2.13
2023-06-08T22:39:51.906Z,2.33
2023-06-08T22:42:20.053Z,2.20
2023-06-08T22:44:48.221Z,1.88
2023-06-08T22:47:16.788Z,2.30
2023-06-08T22:49:49.943Z,2.00
2023-06-08T22:52:20.196Z,2.55
2023-06-08T22:54:49.236Z,2.50
2023-06-08T22:57:17.427Z,2.50
2023-06-08T22:59:45.792Z,3.20
2023-06-08T23:02:14.028Z,2.53
2023-06-08T23:04:47.393Z,2.53
2023-06-08T23:07:18.026Z,2.60
2023-06-08T23:09:49.920Z,2.38
2023-06-08T23:12:18.973Z,2.70
2023-06-08T23:14:50.090Z,2.83
2023-06-08T23:17:19.138Z,2.77
2023-06-08T23:19:49.812Z,2.97
2023-06-08T23:22:20.977Z,3.58
2023-06-08T23:24:49.755Z,3.30
2023-06-08T23:27:18.554Z,3.10
2023-06-08T23:29:48.708Z,3.63
2023-06-08T23:32:17.534Z,3.30
2023-06-08T23:34:46.269Z,3.70
2023-06-08T23:37:17.216Z,4.13
2023-06-08T23:39:47.623Z,3.43
2023-06-08T23:42:18.262Z,4.43
2023-06-08T23:44:46.872Z,4.17
2023-06-08T23:47:15.386Z,4.03
2023-06-08T23:49:44.076Z,3.90
2023-06-08T23:52:12.312Z,4.40
2023-06-08T23:54:40.636Z,4.50
2023-06-08T23:57:11.379Z,4.53
2023-06-08T23:59:39.986Z,3.92
